createdAt,value
2018-11-28T00:00:29.118Z,29.63
2018-11-28T00:02:58.242Z,28.03
2018-11-28T00:05:26.818Z,28.30
2018-11-28T00:07:55.598Z,29.03
2018-11-28T00:10:24.304Z,28.70
2018-11-28T00:12:52.887Z,27.30
2018-11-28T00:15:21.616Z,29.20
2018-11-28T00:17:50.241Z,28.03
2018-11-28T00:20:20.375Z,28.70
2018-11-28T00:22:48.977Z,26.60
2018-11-28T00:25:18.213Z,28.10
2018-11-28T00:27:46.843Z,28.17
2018-11-28T00:30:18.645Z,27.77
2018-11-28T00:32:47.333Z,26.57
2018-11-28T00:35:18.059Z,27.87
2018-11-28T00:37:46.653Z,27.73
2018-11-28T00:40:17.381Z,27.70
2018-11-28T00:42:46.054Z,27.10
2018-11-28T00:45:22.202Z,28.20
2018-11-28T00:47:50.907Z,27.23
2018-11-28T00:50:21.423Z,28.63
2018-11-28T00:52:50.073Z,29.20
2018-11-28T00:55:18.922Z,26.90
2018-11-28T00:57:48.143Z,29.17
2018-11-28T01:00:18.823Z,26.97
2018-11-28T01:02:47.833Z,27.87
2018-11-28T01:05:16.574Z,28.00
2018-11-28T01:07:46.037Z,28.03
2018-11-28T01:10:16.738Z,27.97
2018-11-28T01:12:45.603Z,26.93
2018-11-28T01:15:15.306Z,28.30
2018-11-28T01:17:44.125Z,25.97
2018-11-28T01:20:15.524Z,28.10
2018-11-28T01:22:44.213Z,27.90
2018-11-28T01:25:17.282Z,26.77
2018-11-28T01:27:45.997Z,29.50
2018-11-28T01:30:17.479Z,28.77
2018-11-28T01:32:46.444Z,28.30
2018-11-28T01:35:16.272Z,26.23
2018-11-28T01:37:44.991Z,27.27
2018-11-28T01:40:16.543Z,26.30
2018-11-28T01:42:45.239Z,26.83
2018-11-28T01:45:16.654Z,27.00
2018-11-28T01:47:45.514Z,27.23
2018-11-28T01:50:15.074Z,26.50
2018-11-28T01:52:43.728Z,26.77
2018-11-28T01:55:13.138Z,26.17
2018-11-28T01:57:41.755Z,26.97
2018-11-28T02:00:26.903Z,26.83
2018-11-28T02:02:57.811Z,26.37
2018-11-28T02:05:27.191Z,27.13
2018-11-28T02:07:55.853Z,26.23
2018-11-28T02:10:24.465Z,26.77
2018-11-28T02:12:53.410Z,25.30
2018-11-28T02:15:25.492Z,27.60
2018-11-28T02:17:54.113Z,27.27
2018-11-28T02:20:22.740Z,28.13
2018-11-28T02:22:51.298Z,27.43
2018-11-28T02:25:19.970Z,27.33
2018-11-28T02:27:48.612Z,26.87
2018-11-28T02:30:19.043Z,26.03
2018-11-28T02:32:48.375Z,28.60
2018-11-28T02:35:17.424Z,27.33
2018-11-28T02:37:46.122Z,27.30
2018-11-28T02:40:18.638Z,27.70
2018-11-28T02:42:47.950Z,28.70
2018-11-28T02:45:18.418Z,27.80
2018-11-28T02:47:47.110Z,27.97
2018-11-28T02:50:15.785Z,26.30
2018-11-28T02:52:44.481Z,26.83
2018-11-28T02:55:15.210Z,28.20
2018-11-28T02:57:44.832Z,27.57
2018-11-28T03:00:16.467Z,26.20
2018-11-28T03:02:45.169Z,28.67
2018-11-28T03:05:14.025Z,27.67
2018-11-28T03:07:42.667Z,27.70
2018-11-28T03:10:17.445Z,29.40
2018-11-28T03:12:46.060Z,28.63
2018-11-28T03:15:21.204Z,28.93
2018-11-28T03:17:50.832Z,26.30
2018-11-28T03:20:19.460Z,27.67
2018-11-28T03:22:48.147Z,28.73
2018-11-28T03:25:16.739Z,29.27
2018-11-28T03:27:45.417Z,28.67
2018-11-28T03:30:15.334Z,29.07
2018-11-28T03:32:44.030Z,30.13
2018-11-28T03:35:14.442Z,29.77
2018-11-28T03:37:44.125Z,30.73
2018-11-28T03:40:13.106Z,29.80
2018-11-28T03:42:42.034Z,30.03
2018-11-28T03:45:12.929Z,29.77
2018-11-28T03:47:42.204Z,28.93
2018-11-28T03:50:11.958Z,29.33
2018-11-28T03:52:40.646Z,29.27
2018-11-28T03:55:14.218Z,29.67
2018-11-28T03:57:43.606Z,30.30
2018-11-28T04:00:14.481Z,29.40
2018-11-28T04:02:43.156Z,29.53
2018-11-28T04:05:13.181Z,29.13
2018-11-28T04:07:41.852Z,30.50
2018-11-28T04:10:12.303Z,28.93
2018-11-28T04:12:41.608Z,29.63
2018-11-28T04:15:19.405Z,28.00
2018-11-28T04:17:48.210Z,29.83
2018-11-28T04:20:21.768Z,29.77
2018-11-28T04:22:50.525Z,28.80
2018-11-28T04:25:21.194Z,29.67
2018-11-28T04:27:49.888Z,28.50
2018-11-28T04:30:25.601Z,29.93
2018-11-28T04:32:55.677Z,28.47
2018-11-28T04:35:24.553Z,28.77
2018-11-28T04:37:53.292Z,27.23
2018-11-28T04:40:22.221Z,27.43
2018-11-28T04:42:50.935Z,29.27
2018-11-28T04:45:22.368Z,28.10
2018-11-28T04:47:51.691Z,28.13
2018-11-28T04:50:20.316Z,29.90
2018-11-28T04:52:48.985Z,28.87
2018-11-28T04:55:18.531Z,29.60
2018-11-28T04:57:47.447Z,29.57
2018-11-28T05:00:19.993Z,29.03
2018-11-28T05:02:48.826Z,28.30
2018-11-28T05:05:17.480Z,28.23
2018-11-28T05:07:46.874Z,29.87
2018-11-28T05:10:19.106Z,28.00
2018-11-28T05:12:47.797Z,29.73
2018-11-28T05:15:17.419Z,27.53
2018-11-28T05:17:47.213Z,28.73
2018-11-28T05:20:16.994Z,29.43
2018-11-28T05:22:45.664Z,28.63
2018-11-28T05:25:16.170Z,29.20
2018-11-28T05:27:44.826Z,28.43
2018-11-28T05:30:15.416Z,29.10
2018-11-28T05:32:44.077Z,28.93
2018-11-28T05:35:14.069Z,30.07
2018-11-28T05:37:42.721Z,29.60
2018-11-28T05:40:19.209Z,26.77
2018-11-28T05:42:48.100Z,28.13
2018-11-28T05:45:16.930Z,27.37
2018-11-28T05:47:45.590Z,30.80
2018-11-28T05:50:16.025Z,31.37
2018-11-28T05:52:44.666Z,30.27
2018-11-28T05:55:14.375Z,32.97
2018-11-28T05:57:44.079Z,32.50
2018-11-28T06:00:24.415Z,32.57
2018-11-28T06:02:53.090Z,33.70
2018-11-28T06:05:21.827Z,37.17
2018-11-28T06:07:51.182Z,33.90
2018-11-28T06:10:19.831Z,35.37
2018-11-28T06:12:48.472Z,37.17
2018-11-28T06:15:17.978Z,37.50
2018-11-28T06:17:46.575Z,36.70
2018-11-28T06:20:15.807Z,36.50
2018-11-28T06:22:44.641Z,37.97
2018-11-28T06:25:16.608Z,37.63
2018-11-28T06:27:44.218Z,39.07
2018-11-28T06:30:15.455Z,38.70
2018-11-28T06:32:50.830Z,39.37
2018-11-28T06:35:14.359Z,39.03
2018-11-28T06:37:44.272Z,36.73
2018-11-28T06:40:15.049Z,38.80
2018-11-28T06:42:44.549Z,38.20
2018-11-28T06:45:18.457Z,35.93
2018-11-28T06:47:47.785Z,39.13
2018-11-28T06:50:17.453Z,37.03
2018-11-28T06:52:48.296Z,37.70
2018-11-28T06:55:20.166Z,37.83
2018-11-28T06:57:48.830Z,37.50
2018-11-28T07:00:20.499Z,38.10
2018-11-28T07:02:50.098Z,39.60
2018-11-28T07:05:18.799Z,38.63
2018-11-28T07:07:47.386Z,40.00
2018-11-28T07:10:17.985Z,38.30
2018-11-28T07:12:49.419Z,37.37
2018-11-28T07:15:19.349Z,36.80
2018-11-28T07:18:18.557Z,36.50
2018-11-28T07:20:47.204Z,38.30
2018-11-28T07:23:15.978Z,39.23
2018-11-28T07:25:45.518Z,37.53
2018-11-28T07:28:14.280Z,37.47
2018-11-28T07:30:43.006Z,38.07
2018-11-28T07:33:16.100Z,37.67
2018-11-28T07:35:44.920Z,38.93
2018-11-28T07:38:13.626Z,38.20
2018-11-28T07:40:42.872Z,38.00
2018-11-28T07:43:14.362Z,38.40
2018-11-28T07:45:46.544Z,38.50
2018-11-28T07:48:15.386Z,37.87
2018-11-28T07:50:52.571Z,38.03
2018-11-28T07:53:21.208Z,36.47
2018-11-28T07:55:49.982Z,40.03
2018-11-28T07:58:18.665Z,42.20
2018-11-28T08:00:47.332Z,37.50
2018-11-28T08:03:16.083Z,39.90
2018-11-28T08:05:44.874Z,41.13
2018-11-28T08:10:53.248Z,40.27
2018-11-28T08:13:22.505Z,40.17
2018-11-28T08:15:51.179Z,39.77
2018-11-28T08:18:19.853Z,40.77
2018-11-28T08:20:48.460Z,39.50
2018-11-28T08:23:17.826Z,39.80
2018-11-28T08:25:46.446Z,39.03
2018-11-28T08:28:15.062Z,39.87
2018-11-28T08:30:43.744Z,39.60
2018-11-28T08:33:12.438Z,40.87
2018-11-28T08:35:41.112Z,39.27
2018-11-28T08:38:09.779Z,39.13
2018-11-28T08:40:39.518Z,40.70
2018-11-28T08:43:08.477Z,39.50
2018-11-28T08:45:37.187Z,39.10
2018-11-28T08:48:06.095Z,37.17
2018-11-28T08:50:37.397Z,38.90
2018-11-28T08:53:07.245Z,39.13
2018-11-28T08:55:35.868Z,36.30
2018-11-28T08:58:04.581Z,36.43
2018-11-28T09:00:33.927Z,35.87
2018-11-28T09:03:02.608Z,37.37
2018-11-28T09:05:31.288Z,36.43
2018-11-28T09:07:59.999Z,35.97
2018-11-28T09:10:28.699Z,35.77
2018-11-28T09:12:57.399Z,34.17
2018-11-28T09:15:27.102Z,35.23
2018-11-28T09:17:56.117Z,34.33
2018-11-28T09:20:24.814Z,33.77
2018-11-28T09:22:59.046Z,34.43
2018-11-28T09:25:27.651Z,34.00
2018-11-28T09:27:58.405Z,34.93
2018-11-28T09:30:27.087Z,34.63
2018-11-28T09:32:55.727Z,34.17
2018-11-28T09:35:24.388Z,33.93
2018-11-28T09:37:53.948Z,33.77
2018-11-28T09:40:25.116Z,32.67
2018-11-28T09:42:54.954Z,34.03
2018-11-28T09:45:23.590Z,33.43
2018-11-28T09:47:52.250Z,32.33
2018-11-28T09:50:23.736Z,33.17
2018-11-28T09:52:53.013Z,34.40
2018-11-28T09:55:25.722Z,33.50
2018-11-28T09:57:54.469Z,32.83
2018-11-28T10:00:27.183Z,31.17
2018-11-28T10:02:57.837Z,30.93
2018-11-28T10:05:27.741Z,33.30
2018-11-28T10:07:56.553Z,31.60
2018-11-28T10:10:25.258Z,32.03
2018-11-28T10:12:53.988Z,29.63
2018-11-28T10:15:23.667Z,31.00
2018-11-28T10:17:52.388Z,29.33
2018-11-28T10:20:21.194Z,29.90
2018-11-28T10:22:51.023Z,30.07
2018-11-28T10:25:23.509Z,27.63
2018-11-28T10:27:55.481Z,29.10
2018-11-28T10:30:29.388Z,30.17
2018-11-28T10:32:58.944Z,28.87
2018-11-28T10:35:27.615Z,28.93
2018-11-28T10:37:56.323Z,28.13
2018-11-28T10:40:25.467Z,28.50
2018-11-28T10:42:56.033Z,30.00
2018-11-28T10:45:26.644Z,26.70
2018-11-28T10:47:55.466Z,29.83
2018-11-28T10:50:24.135Z,27.93
2018-11-28T10:52:52.979Z,27.67
2018-11-28T10:55:24.243Z,29.13
2018-11-28T10:57:53.063Z,28.17
2018-11-28T11:00:30.140Z,28.70
2018-11-28T11:03:04.765Z,29.00
2018-11-28T11:05:38.843Z,27.60
2018-11-28T11:08:13.107Z,28.10
2018-11-28T11:10:47.212Z,28.37
2018-11-28T11:13:21.126Z,28.07
2018-11-28T11:15:55.083Z,27.63
2018-11-28T11:18:23.770Z,27.53
2018-11-28T11:20:52.493Z,26.43
2018-11-28T11:23:21.157Z,27.30
2018-11-28T11:25:53.796Z,26.50
2018-11-28T11:28:22.672Z,27.63
2018-11-28T11:30:51.432Z,28.17
2018-11-28T11:33:20.773Z,26.03
2018-11-28T11:35:49.572Z,27.10
2018-11-28T11:38:18.216Z,28.20
2018-11-28T11:40:49.614Z,27.80
2018-11-28T11:43:19.415Z,27.33
2018-11-28T11:45:48.051Z,26.03
2018-11-28T11:48:16.731Z,26.17
2018-11-28T11:50:45.441Z,25.23
2018-11-28T11:53:14.177Z,24.87
2018-11-28T11:55:42.811Z,27.37
2018-11-28T11:58:11.498Z,25.33
2018-11-28T12:00:41.619Z,26.13
2018-11-28T12:03:12.586Z,25.10
2018-11-28T12:05:42.911Z,24.50
2018-11-28T12:08:11.571Z,23.70
2018-11-28T12:10:40.226Z,25.40
2018-11-28T12:13:08.978Z,24.80
2018-11-28T12:15:38.920Z,24.90
2018-11-28T12:18:07.604Z,24.50
2018-11-28T12:20:42.907Z,24.67
2018-11-28T12:23:12.179Z,25.30
2018-11-28T12:25:41.140Z,24.13
2018-11-28T12:28:09.984Z,25.27
2018-11-28T12:30:38.684Z,24.20
2018-11-28T12:33:07.709Z,23.60
2018-11-28T12:35:36.397Z,23.93
2018-11-28T12:38:05.117Z,23.80
2018-11-28T12:40:34.774Z,24.77
2018-11-28T12:43:04.079Z,24.33
2018-11-28T12:45:32.783Z,24.93
2018-11-28T12:48:02.487Z,23.93
2018-11-28T12:50:32.767Z,24.20
2018-11-28T12:53:02.237Z,23.47
2018-11-28T12:55:33.347Z,23.47
2018-11-28T12:58:04.551Z,24.43
2018-11-28T13:00:35.615Z,23.77
2018-11-28T13:03:04.941Z,24.50
2018-11-28T13:05:34.053Z,23.63
2018-11-28T13:08:03.178Z,23.37
2018-11-28T13:10:36.234Z,23.37
2018-11-28T13:13:05.901Z,24.00
2018-11-28T13:15:34.759Z,23.73
2018-11-28T13:18:04.061Z,23.47
2018-11-28T13:20:32.721Z,23.87
2018-11-28T13:23:01.354Z,23.60
2018-11-28T13:25:30.031Z,23.73
2018-11-28T13:27:58.763Z,23.70
2018-11-28T13:30:27.495Z,24.97
2018-11-28T13:32:56.347Z,24.70
2018-11-28T13:35:26.006Z,23.93
2018-11-28T13:37:56.909Z,23.33
2018-11-28T13:40:25.591Z,23.23
2018-11-28T13:42:54.480Z,23.93
2018-11-28T13:45:24.597Z,24.43
2018-11-28T13:47:54.097Z,25.50
2018-11-28T13:50:22.707Z,24.13
2018-11-28T13:52:52.082Z,23.47
2018-11-28T13:55:41.828Z,24.20
2018-11-28T13:57:52.824Z,23.53
2018-11-28T14:00:21.570Z,23.50
2018-11-28T14:02:50.546Z,22.57
2018-11-28T14:05:19.969Z,23.60
2018-11-28T14:07:49.462Z,22.67
2018-11-28T14:10:18.262Z,22.17
2018-11-28T14:12:46.978Z,22.73
2018-11-28T14:15:18.566Z,21.97
2018-11-28T14:17:48.844Z,22.80
2018-11-28T14:20:18.323Z,22.53
2018-11-28T14:22:47.097Z,22.20
2018-11-28T14:25:15.835Z,21.70
2018-11-28T14:27:44.698Z,22.80
2018-11-28T14:30:15.053Z,21.07
2018-11-28T14:32:43.985Z,22.13
2018-11-28T14:35:13.002Z,23.43
2018-11-28T14:37:41.794Z,23.30
2018-11-28T14:40:11.984Z,22.80
2018-11-28T14:42:40.784Z,23.13
2018-11-28T14:45:11.928Z,24.33
2018-11-28T14:47:40.794Z,24.33
2018-11-28T14:50:17.915Z,24.20
2018-11-28T14:52:47.047Z,24.20
2018-11-28T14:55:18.897Z,25.33
2018-11-28T14:57:47.758Z,24.87
2018-11-28T15:00:17.953Z,25.47
2018-11-28T15:02:47.873Z,26.50
2018-11-28T15:05:27.458Z,25.47
2018-11-28T15:07:59.914Z,24.43
2018-11-28T15:10:40.304Z,24.80
2018-11-28T15:13:09.854Z,24.57
2018-11-28T15:15:38.497Z,24.97
2018-11-28T15:18:07.160Z,27.13
2018-11-28T15:20:35.814Z,26.87
2018-11-28T15:23:04.424Z,25.87
2018-11-28T15:25:33.131Z,25.00
2018-11-28T15:28:01.851Z,23.70
2018-11-28T15:30:30.662Z,22.50
2018-11-28T15:32:59.295Z,22.40
2018-11-28T15:35:27.952Z,21.63
2018-11-28T15:37:56.735Z,22.90
2018-11-28T15:40:25.440Z,23.77
2018-11-28T15:42:54.089Z,23.87
2018-11-28T15:45:23.860Z,23.47
2018-11-28T15:47:52.443Z,22.67
2018-11-28T15:50:21.149Z,24.27
2018-11-28T15:52:49.837Z,24.83
2018-11-28T15:55:18.480Z,22.20
2018-11-28T15:57:47.104Z,23.07
2018-11-28T16:00:19.997Z,22.47
2018-11-28T16:02:48.686Z,23.67
2018-11-28T16:05:17.311Z,22.10
2018-11-28T16:07:45.887Z,21.90
2018-11-28T16:10:20.256Z,20.67
2018-11-28T16:12:49.330Z,21.03
2018-11-28T16:15:22.328Z,21.77
2018-11-28T16:17:50.952Z,21.67
2018-11-28T16:20:19.672Z,22.70
2018-11-28T16:22:48.556Z,21.47
2018-11-28T16:25:17.279Z,22.53
2018-11-28T16:27:45.906Z,21.87
2018-11-28T16:30:15.885Z,21.47
2018-11-28T16:32:45.443Z,21.13
2018-11-28T16:35:15.118Z,21.57
2018-11-28T16:37:43.972Z,22.70
2018-11-28T16:40:16.969Z,22.47
2018-11-28T16:42:46.199Z,24.53
2018-11-28T16:45:19.030Z,23.60
2018-11-28T16:47:49.061Z,23.83
2018-11-28T16:50:18.963Z,25.67
2018-11-28T16:52:47.818Z,25.87
2018-11-28T16:55:17.310Z,24.50
2018-11-28T16:57:48.449Z,25.20
2018-11-28T17:00:20.431Z,26.73
2018-11-28T17:02:49.486Z,25.63
2018-11-28T17:05:20.259Z,26.63
2018-11-28T17:07:49.183Z,28.17
2018-11-28T17:10:24.936Z,26.53
2018-11-28T17:12:54.230Z,27.67
2018-11-28T17:15:23.042Z,26.70
2018-11-28T17:17:51.682Z,27.57
2018-11-28T17:20:24.246Z,27.37
2018-11-28T17:22:55.692Z,28.73
2018-11-28T17:25:25.718Z,27.90
2018-11-28T17:27:54.451Z,29.60
2018-11-28T17:30:27.888Z,29.10
2018-11-28T17:32:57.175Z,29.00
2018-11-28T17:35:25.926Z,30.17
2018-11-28T17:37:54.759Z,30.80
2018-11-28T17:40:25.469Z,33.30
2018-11-28T17:42:55.281Z,30.70
2018-11-28T17:45:25.017Z,30.63
2018-11-28T17:47:53.773Z,33.03
2018-11-28T17:50:24.298Z,31.60
2018-11-28T17:53:10.002Z,31.83
2018-11-28T17:55:41.299Z,33.33
2018-11-28T17:58:10.507Z,32.50
2018-11-28T18:00:39.230Z,32.57
2018-11-28T18:03:07.886Z,34.57
2018-11-28T18:05:37.338Z,34.40
2018-11-28T18:08:06.206Z,35.10
2018-11-28T18:10:34.966Z,35.50
2018-11-28T18:13:08.059Z,35.00
2018-11-28T18:15:36.854Z,37.87
2018-11-28T18:18:07.708Z,36.10
2018-11-28T18:20:36.404Z,36.80
2018-11-28T18:23:06.462Z,35.73
2018-11-28T18:25:35.124Z,36.23
2018-11-28T18:28:03.838Z,37.50
2018-11-28T18:30:32.456Z,37.40
2018-11-28T18:33:01.147Z,38.33
2018-11-28T18:35:29.799Z,40.43
2018-11-28T18:37:58.443Z,39.10
2018-11-28T18:40:27.098Z,37.23
2018-11-28T18:42:55.787Z,36.70
2018-11-28T18:45:26.638Z,36.47
2018-11-28T18:47:55.316Z,35.93
2018-11-28T18:50:23.975Z,34.60
2018-11-28T18:52:52.682Z,36.30
2018-11-28T18:55:21.715Z,35.50
2018-11-28T18:57:54.555Z,35.03
2018-11-28T19:00:24.456Z,34.37
2018-11-28T19:02:53.649Z,35.83
2018-11-28T19:05:22.293Z,35.63
2018-11-28T19:07:50.946Z,35.67
2018-11-28T19:10:26.031Z,35.00
2018-11-28T19:12:49.780Z,34.37
2018-11-28T19:15:21.509Z,35.30
2018-11-28T19:17:50.325Z,33.47
2018-11-28T19:20:20.015Z,36.03
2018-11-28T19:22:49.114Z,35.37
2018-11-28T19:25:22.630Z,36.60
2018-11-28T19:27:51.375Z,37.20
2018-11-28T19:30:30.640Z,38.23
2018-11-28T19:32:53.985Z,37.20
2018-11-28T19:35:23.741Z,36.57
2018-11-28T19:37:51.273Z,37.10
2018-11-28T19:40:27.173Z,37.00
2018-11-28T19:42:55.771Z,38.50
2018-11-28T19:45:25.308Z,37.70
2018-11-28T19:47:53.938Z,37.60
2018-11-28T19:50:25.123Z,37.30
2018-11-28T19:52:53.721Z,35.63
2018-11-28T19:55:22.442Z,35.00
2018-11-28T19:57:51.124Z,35.10
2018-11-28T20:00:20.175Z,37.37
2018-11-28T20:02:48.835Z,36.20
2018-11-28T20:05:17.610Z,35.83
2018-11-28T20:07:47.378Z,35.47
2018-11-28T20:10:19.251Z,35.87
2018-11-28T20:12:47.915Z,36.60
2018-11-28T20:15:21.046Z,36.47
2018-11-28T20:17:49.876Z,37.47
2018-11-28T20:20:18.601Z,36.00
2018-11-28T20:22:47.280Z,36.07
2018-11-28T20:25:17.064Z,35.23
2018-11-28T20:28:00.674Z,36.77
2018-11-28T20:30:37.708Z,36.60
2018-11-28T20:33:06.894Z,37.13
2018-11-28T20:35:35.548Z,36.97
2018-11-28T20:38:04.263Z,37.27
2018-11-28T20:40:32.937Z,38.87
2018-11-28T20:43:01.575Z,36.87
2018-11-28T20:45:30.273Z,38.03
2018-11-28T20:47:59.885Z,38.50
2018-11-28T20:50:32.035Z,36.63
2018-11-28T20:53:09.868Z,37.97
2018-11-28T20:55:39.127Z,38.23
2018-11-28T20:58:07.966Z,40.97
2018-11-28T21:00:36.843Z,39.30
2018-11-28T21:03:05.904Z,39.63
2018-11-28T21:05:36.682Z,40.83
2018-11-28T21:08:06.070Z,41.83
2018-11-28T21:10:35.071Z,40.67
2018-11-28T21:13:05.315Z,41.43
2018-11-28T21:15:34.023Z,41.27
2018-11-28T21:18:02.707Z,43.63
2018-11-28T21:20:31.329Z,41.50
2018-11-28T21:23:02.221Z,42.77
2018-11-28T21:25:30.826Z,43.77
2018-11-28T21:27:59.584Z,41.93
2018-11-28T21:30:28.268Z,43.83
2018-11-28T21:32:57.761Z,41.23
2018-11-28T21:35:30.558Z,43.27
2018-11-28T21:37:59.238Z,43.73
2018-11-28T21:40:27.894Z,42.53
2018-11-28T21:42:56.597Z,42.20
2018-11-28T21:45:26.935Z,43.10
2018-11-28T21:47:55.662Z,41.97
2018-11-28T21:50:26.324Z,42.47
2018-11-28T21:52:54.977Z,41.30
2018-11-28T21:55:25.339Z,43.00
2018-11-28T21:57:53.915Z,40.60
2018-11-28T22:00:24.711Z,39.20
2018-11-28T22:02:53.487Z,41.30
2018-11-28T22:05:23.465Z,42.00
2018-11-28T22:07:52.165Z,40.47
2018-11-28T22:10:21.839Z,42.97
2018-11-28T22:12:50.520Z,41.00
2018-11-28T22:15:19.288Z,40.73
2018-11-28T22:17:50.990Z,40.23
2018-11-28T22:20:19.728Z,41.90
2018-11-28T22:22:48.364Z,40.70
2018-11-28T22:25:25.513Z,43.10
2018-11-28T22:27:54.202Z,42.87
2018-11-28T22:30:25.818Z,42.67
2018-11-28T22:32:54.409Z,44.00
2018-11-28T22:35:23.128Z,42.63
2018-11-28T22:37:51.878Z,43.40
2018-11-28T22:40:23.748Z,43.07
2018-11-28T22:42:52.432Z,42.17
2018-11-28T22:45:22.940Z,42.37
2018-11-28T22:47:51.739Z,42.77
2018-11-28T22:50:20.330Z,43.70
2018-11-28T22:52:48.938Z,42.70
2018-11-28T22:55:18.157Z,42.67
2018-11-28T22:57:46.881Z,43.83
2018-11-28T23:00:22.892Z,41.47
2018-11-28T23:02:55.025Z,42.67
2018-11-28T23:05:26.495Z,46.67
2018-11-28T23:07:55.902Z,42.03
2018-11-28T23:10:24.489Z,44.90
2018-11-28T23:12:53.117Z,43.70
2018-11-28T23:15:21.845Z,44.77
2018-11-28T23:17:55.021Z,47.00
2018-11-28T23:20:37.516Z,46.73
2018-11-28T23:25:30.955Z,47.77
2018-11-28T23:28:17.615Z,45.43
2018-11-28T23:30:56.002Z,48.03
2018-11-28T23:33:38.098Z,46.90
2018-11-28T23:36:07.598Z,47.57
2018-11-28T23:38:36.174Z,46.23
2018-11-28T23:41:04.877Z,46.60
2018-11-28T23:43:34.617Z,46.17
2018-11-28T23:46:03.263Z,46.07
2018-11-28T23:48:31.851Z,44.17
2018-11-28T23:51:00.453Z,43.23
2018-11-28T23:53:29.283Z,44.03
2018-11-28T23:55:57.871Z,42.57
2018-11-28T23:58:26.486Z,42.53
